X  Luk Metar data     EIDW Dublin Airport
Temperatur
21°C Temperatur
11°C Duggpunkt
53% Fugtighed



Vind
8 MPT
13 KM/T
4 M/S
7 KNOB



140°
Nuværende forhold

Klart Klart
Tryk 1023.92 (hPa) - 30.24 (inHg)
Sigt 6.2 (mil) - 10 (km)
Lufthavn
Lufthavnskode EIDW

Lokation: Dublin Airport
Afstand: 17 (mi)

Metar:
EIDW 101900Z 14007KT 090V170 CAVOK 21/11 Q1024 NOSIG

Tid: 10-08-2022 20:00 IST